Time;durP1;ratioP1;P1;durP2;ratioP2;P2;SDS_P1;SDS_P2;PMS_P1;PMS_P2;Temp;Humidity;BMP_temperature;BMP_pressure;BME280_temperature;BME280_humidity;BME280_pressure;Samples;Min_cycle;Max_cycle;Signal;HPM_P1;HPM_P2
2022/12/10 00:02:00;;;;;;;177.52;36.42;;;;;;;-2.09;100.00;100918.28;5096515;28;20028;-74
2022/12/10 00:04:26;;;;;;;158.27;34.42;;;;;;;-2.09;100.00;100923.50;5096490;28;20058;-74
2022/12/10 00:06:51;;;;;;;168.07;37.00;;;;;;;-2.07;100.00;100919.09;5096097;28;20421;-74
2022/12/10 00:09:19;;;;;;;164.57;34.70;;;;;;;-2.11;100.00;100922.72;5096483;28;20023;-73
2022/12/10 00:11:45;;;;;;;161.45;35.35;;;;;;;-2.13;100.00;100921.00;5096444;28;20035;-74
2022/12/10 00:14:12;;;;;;;175.00;38.65;;;;;;;-2.14;100.00;100927.13;5078422;28;20380;-74
2022/12/10 00:16:37;;;;;;;167.15;36.10;;;;;;;-2.18;100.00;100930.78;5096007;28;20482;-74
2022/12/10 00:19:03;;;;;;;186.02;36.53;;;;;;;-2.19;100.00;100933.44;5096299;28;20056;-74
2022/12/10 00:21:31;;;;;;;164.05;35.22;;;;;;;-2.23;100.00;100924.00;5096161;28;20031;-73
2022/12/10 00:23:57;;;;;;;194.57;37.40;;;;;;;-2.26;100.00;100930.19;5096568;28;20520;-74
2022/12/10 00:26:27;;;;;;;150.57;33.95;;;;;;;-2.31;100.00;100927.75;5096266;28;20020;-73
2022/12/10 00:28:53;;;;;;;169.45;37.05;;;;;;;-2.35;100.00;100928.75;5095863;28;20036;-74
2022/12/10 00:31:29;;;;;;;171.43;36.08;;;;;;;-2.42;100.00;100929.88;5096697;28;20441;-74
2022/12/10 00:33:57;;;;;;;171.55;36.20;;;;;;;-2.44;100.00;100925.63;5078324;28;20356;-73
2022/12/10 00:36:25;;;;;;;156.65;35.10;;;;;;;-2.46;100.00;100930.91;5077885;28;20040;-73
2022/12/10 00:38:51;;;;;;;175.93;36.67;;;;;;;-2.45;100.00;100943.00;5078476;28;20024;-73
2022/12/10 00:41:17;;;;;;;174.48;38.10;;;;;;;-2.39;100.00;100947.16;5077948;28;20078;-74
2022/12/10 00:43:43;;;;;;;195.45;38.20;;;;;;;-2.41;100.00;100933.34;5095643;28;20032;-74
2022/12/10 00:46:09;;;;;;;198.75;37.40;;;;;;;-2.43;100.00;100948.16;5078372;28;20024;-75
2022/12/10 00:48:35;;;;;;;192.00;37.47;;;;;;;-2.46;100.00;100933.50;5095730;28;20024;-76
2022/12/10 00:51:06;;;;;;;184.00;35.55;;;;;;;-2.44;100.00;100942.09;5076138;28;20131;-75
2022/12/10 00:53:32;;;;;;;;;;;;;;;-2.44;100.00;100943.88;5078663;28;20027;-73
2022/12/10 00:55:59;;;;;;;159.30;32.53;;;;;;;-2.43;100.00;100940.34;5095634;28;19911;-73
2022/12/10 00:58:29;;;;;;;162.65;34.03;;;;;;;-2.41;100.00;100935.94;5095454;28;20363;-74
2022/12/10 01:00:54;;;;;;;186.25;36.45;;;;;;;-2.37;100.00;100935.78;5095643;28;20049;-74
2022/12/10 01:03:20;;;;;;;164.18;33.83;;;;;;;-2.34;100.00;100934.84;5095599;28;20024;-74
2022/12/10 01:05:46;;;;;;;175.93;34.00;;;;;;;-2.32;100.00;100928.63;5095402;28;20027;-74
2022/12/10 01:08:11;;;;;;;159.50;34.83;;;;;;;-2.28;100.00;100937.22;5095597;28;20020;-74
2022/12/10 01:10:37;;;;;;;176.43;36.92;;;;;;;-2.27;100.00;100935.44;5095203;28;20411;-74
2022/12/10 01:13:04;;;;;;;184.70;35.85;;;;;;;-2.27;100.00;100940.66;5095027;28;20032;-73
2022/12/10 01:15:29;;;;;;;156.73;35.70;;;;;;;-2.26;100.00;100948.44;5095391;28;20039;-75
2022/12/10 01:17:55;;;;;;;158.40;34.45;;;;;;;-2.23;100.00;100956.13;5077166;28;20027;-74
2022/12/10 01:20:20;;;;;;;163.15;34.65;;;;;;;-2.24;100.00;100954.47;5077364;28;20521;-75
2022/12/10 01:22:46;;;;;;;187.82;38.72;;;;;;;-2.23;100.00;100957.91;5094710;28;20016;-75
2022/12/10 01:25:12;;;;;;;171.55;38.28;;;;;;;-2.25;100.00;100957.97;5077029;28;20518;-74
2022/12/10 01:27:37;;;;;;;170.50;37.38;;;;;;;-2.23;100.00;100953.53;5060335;28;20123;-74
2022/12/10 01:30:03;;;;;;;167.45;35.78;;;;;;;-2.20;100.00;100961.25;5076736;28;20063;-74
2022/12/10 01:32:28;;;;;;;160.43;37.13;;;;;;;-2.20;100.00;100956.03;5076994;28;20050;-75
2022/12/10 01:34:54;;;;;;;178.63;37.92;;;;;;;-2.17;100.00;100949.88;5095092;28;20391;-74
2022/12/10 01:37:19;;;;;;;178.18;35.55;;;;;;;-2.17;100.00;100953.31;5060402;28;20036;-74
2022/12/10 01:39:45;;;;;;;186.45;38.20;;;;;;;-2.17;100.00;100960.28;5094675;28;20027;-75
2022/12/10 01:42:13;;;;;;;170.88;36.55;;;;;;;-2.18;100.00;100964.66;5076328;28;20020;-74
2022/12/10 01:44:41;;;;;;;179.40;38.17;;;;;;;-2.16;100.00;100968.06;5094656;28;20028;-74
2022/12/10 01:47:07;;;;;;;181.35;37.90;;;;;;;-2.14;100.00;100965.38;5076360;28;20058;-74
2022/12/10 01:49:38;;;;;;;162.80;37.60;;;;;;;-2.12;100.00;100971.38;5094785;28;20064;-73
2022/12/10 01:52:07;;;;;;;179.95;38.00;;;;;;;-2.12;100.00;100971.38;5091938;28;20071;-75
2022/12/10 01:54:41;;;;;;;148.68;36.05;;;;;;;-2.12;100.00;100968.78;5094546;28;20134;-74
2022/12/10 01:57:12;;;;;;;194.55;39.47;;;;;;;-2.10;100.00;100973.97;5076707;28;20019;-74
2022/12/10 01:59:39;;;;;;;;;;;;;;;-2.09;100.00;100968.72;5094873;28;20112;-74
2022/12/10 02:02:11;;;;;;;156.52;35.90;;;;;;;-2.07;100.00;100976.47;5075693;28;20336;-73
2022/12/10 02:04:41;;;;;;;181.60;37.42;;;;;;;-2.05;100.00;100970.28;5075907;28;20107;-75
2022/12/10 02:07:32;;;;;;;176.60;36.65;;;;;;;-2.05;100.00;100972.03;5075646;28;20047;-75
2022/12/10 02:10:17;;;;;;;162.02;35.35;;;;;;;-2.06;100.00;100971.19;5076261;28;20080;-73
2022/12/10 02:13:06;;;;;;;185.88;37.35;;;;;;;-2.04;100.00;100966.78;5094128;28;20027;-74
2022/12/10 02:15:36;;;;;;;172.90;37.60;;;;;;;-2.02;100.00;100971.94;5076232;28;20042;-75
2022/12/10 02:18:15;;;;;;;193.70;37.45;;;;;;;-2.00;100.00;100967.50;5076104;28;20027;-75
2022/12/10 02:20:46;;;;;;;248.23;37.90;;;;;;;-1.99;100.00;100961.38;5076171;28;20051;-74
2022/12/10 02:23:50;;;;;;;248.60;38.63;;;;;;;-1.97;100.00;100964.78;5094422;28;20389;-76
2022/12/10 02:26:26;;;;;;;184.38;37.95;;;;;;;-1.97;100.00;100965.66;4975930;28;20037;-75
2022/12/10 02:29:03;;;;;;;202.02;38.55;;;;;;;-1.96;100.00;100962.13;5082158;28;20039;-75
2022/12/10 02:31:31;;;;;;;206.70;38.00;;;;;;;-1.95;100.00;100958.59;5093941;28;20459;-75
2022/12/10 02:34:00;;;;;;;245.90;38.40;;;;;;;-1.95;100.00;100958.59;5075804;28;20533;-74
2022/12/10 02:36:30;;;;;;;176.10;36.83;;;;;;;-1.95;100.00;100963.81;5093468;28;20024;-75
2022/12/10 02:38:57;;;;;;;261.95;40.55;;;;;;;-1.93;100.00;100960.31;5093656;28;20206;-75
2022/12/10 02:41:30;;;;;;;208.40;37.65;;;;;;;-1.92;100.00;100955.03;5076051;28;20024;-74
2022/12/10 02:43:59;;;;;;;273.98;40.75;;;;;;;-1.92;100.00;100955.03;5093339;28;20035;-74
2022/12/10 02:46:28;;;;;;;342.33;41.53;;;;;;;-1.92;100.00;100959.41;5075767;28;20020;-74
2022/12/10 02:48:54;;;;;;;183.57;35.85;;;;;;;-1.92;100.00;100956.81;5093274;28;20410;-74
2022/12/10 02:51:19;;;;;;;332.00;39.65;;;;;;;-1.95;100.00;100948.16;5042103;28;20079;-73
2022/12/10 02:53:45;;;;;;;484.75;45.58;;;;;;;-1.93;100.00;100955.09;5075040;28;20064;-75
2022/12/10 02:56:27;;;;;;;367.02;38.20;;;;;;;-1.94;100.00;100943.81;5093953;28;20048;-74
2022/12/10 02:59:26;;;;;;;320.38;36.88;;;;;;;-1.96;100.00;100951.72;5093611;28;20073;-73
2022/12/10 03:02:00;;;;;;;299.05;35.47;;;;;;;-1.96;100.00;100951.72;5075441;28;20420;-75
2022/12/10 03:04:29;;;;;;;148.40;32.63;;;;;;;-1.95;100.00;100948.16;5075694;28;20020;-74
2022/12/10 03:07:05;;;;;;;422.95;42.58;;;;;;;-1.95;100.00;100948.16;5075287;28;20012;-78
2022/12/10 03:09:39;;;;;;;267.05;35.35;;;;;;;-1.99;100.00;100953.56;5093221;28;20027;-74
2022/12/10 03:12:20;;;;;;;397.27;39.22;;;;;;;-2.01;100.00;100953.63;5093919;28;20417;-74
2022/12/10 03:14:46;;;;;;;174.60;33.45;;;;;;;-2.00;100.00;100957.06;5097176;28;20103;-74
2022/12/10 03:17:13;;;;;;;223.80;35.00;;;;;;;-2.01;100.00;100958.84;5079548;28;20066;-75
2022/12/10 03:19:46;;;;;;;338.38;38.75;;;;;;;-1.97;100.00;100956.94;5079222;28;20032;-75
2022/12/10 03:22:13;;;;;;;281.85;35.13;;;;;;;-2.00;100.00;100955.31;5098038;28;20072;-75
2022/12/10 03:24:42;;;;;;;441.33;39.00;;;;;;;-1.97;100.00;100962.16;5097370;28;20031;-74
2022/12/10 03:27:13;;;;;;;294.90;33.83;;;;;;;-1.97;100.00;100956.94;5097816;28;20444;-74
2022/12/10 03:29:42;;;;;;;184.20;31.02;;;;;;;-1.98;100.00;100969.16;5097012;28;20051;-74
2022/12/10 03:32:07;;;;;;;206.07;32.20;;;;;;;-2.00;100.00;100965.75;5078982;28;20486;-73
2022/12/10 03:34:34;;;;;;;260.40;34.17;;;;;;;-1.98;100.00;100966.53;5096985;28;20088;-74
2022/12/10 03:37:01;;;;;;;272.85;34.17;;;;;;;-1.99;100.00;100962.22;5079155;28;20085;-74
2022/12/10 03:39:27;;;;;;;240.15;33.75;;;;;;;-2.01;100.00;100955.38;5096744;28;20028;-73
2022/12/10 03:41:52;;;;;;;211.93;32.33;;;;;;;-2.00;100.00;100960.53;5078787;28;20111;-74
2022/12/10 03:44:33;;;;;;;284.55;32.55;;;;;;;-2.01;100.00;100969.25;5078736;28;20128;-74
2022/12/10 03:46:59;;;;;;;136.38;28.13;;;;;;;-2.03;100.00;100963.25;5079468;28;20070;-74
2022/12/10 03:49:24;;;;;;;324.52;32.70;;;;;;;-2.02;100.00;100964.09;5096611;28;20059;-73
2022/12/10 03:51:50;;;;;;;328.35;34.58;;;;;;;-2.03;100.00;100965.00;5096814;28;20078;-75
2022/12/10 03:54:15;;;;;;;343.85;34.97;;;;;;;-2.03;100.00;100965.00;5078604;28;20473;-74
2022/12/10 03:56:40;;;;;;;306.27;37.10;;;;;;;-2.00;100.00;100965.75;5078504;28;20073;-74
2022/12/10 03:59:06;;;;;;;347.58;36.15;;;;;;;-2.01;100.00;100964.06;5096632;28;20027;-74
2022/12/10 04:01:31;;;;;;;406.08;35.67;;;;;;;-1.99;100.00;100964.84;5078576;28;20025;-74
2022/12/10 04:03:57;;;;;;;382.85;36.58;;;;;;;-1.99;100.00;100969.22;5062006;28;20453;-74
2022/12/10 04:06:22;;;;;;;267.67;33.03;;;;;;;-2.00;100.00;100962.28;5096285;28;20026;-74
2022/12/10 04:08:48;;;;;;;362.45;39.80;;;;;;;-2.00;100.00;100967.50;5096818;28;20398;-74
2022/12/10 04:11:14;;;;;;;222.30;31.75;;;;;;;-1.98;100.00;100982.19;5096545;28;20035;-74
2022/12/10 04:16:27;;;;;;;284.58;34.08;;;;;;;-1.98;100.00;100973.53;5096462;28;20090;-73
2022/12/10 04:18:54;;;;;;;252.13;32.67;;;;;;;-1.97;100.00;100972.59;5096978;28;20082;-74
2022/12/10 04:26:55;;;;;;;245.77;34.35;;;;;;;-1.95;100.00;100976.03;5081257;28;20055;-74
2022/12/10 04:29:23;;;;;;;294.60;35.63;;;;;;;-1.96;100.00;100969.97;5096438;28;20024;-74
2022/12/10 04:31:48;;;;;;;277.80;33.78;;;;;;;-1.95;100.00;100969.03;5078753;28;20089;-73
2022/12/10 04:34:14;;;;;;;232.77;33.58;;;;;;;-1.95;100.00;100962.97;5061716;28;20364;-73
2022/12/10 04:36:39;;;;;;;289.17;36.92;;;;;;;-1.92;100.00;100975.06;5077950;28;20059;-74
2022/12/10 04:39:05;;;;;;;144.23;30.25;;;;;;;-1.91;100.00;100972.41;5095946;28;20414;-74
2022/12/10 04:41:30;;;;;;;193.07;33.00;;;;;;;-1.93;100.00;100968.13;5095800;28;20122;-73
2022/12/10 04:43:55;;;;;;;285.05;35.22;;;;;;;-1.92;100.00;100975.06;5077621;28;20024;-73
2022/12/10 04:46:22;;;;;;;230.38;34.38;;;;;;;-1.89;100.00;100977.56;5095832;28;20028;-75
2022/12/10 04:48:47;;;;;;;230.38;33.20;;;;;;;-1.83;100.00;100975.56;5095576;28;20024;-73
2022/12/10 04:51:12;;;;;;;150.98;28.13;;;;;;;-1.88;100.00;100977.50;5095562;28;20472;-74
2022/12/10 04:53:39;;;;;;;190.60;30.90;;;;;;;-1.86;100.00;100972.22;5096229;28;20063;-73
2022/12/10 04:56:05;;;;;;;287.92;35.05;;;;;;;-1.88;100.00;100974.91;5077429;28;20404;-74
2022/12/10 04:58:32;;;;;;;286.42;34.05;;;;;;;-1.89;100.00;100972.34;5095769;28;20028;-74
2022/12/10 05:01:05;;;;;;;319.77;34.53;;;;;;;-1.87;100.00;100973.13;5077235;28;20379;-74
2022/12/10 05:03:30;;;;;;;301.38;32.17;;;;;;;-1.88;100.00;100982.72;5095519;28;20028;-73
2022/12/10 05:06:00;;;;;;;235.98;32.25;;;;;;;-1.90;100.00;100971.47;5095541;28;20368;-74
2022/12/10 05:08:26;;;;;;;326.23;32.75;;;;;;;-1.89;100.00;100967.13;5095684;28;20351;-75
2022/12/10 05:10:51;;;;;;;281.73;34.28;;;;;;;-1.86;100.00;100967.84;5077196;28;20107;-74
2022/12/10 05:13:16;;;;;;;182.10;31.05;;;;;;;-1.87;100.00;100973.97;5077555;28;20317;-75
2022/12/10 05:15:42;;;;;;;242.55;31.90;;;;;;;-1.87;100.00;100968.75;5077177;28;20032;-74
2022/12/10 05:18:07;;;;;;;319.27;33.65;;;;;;;-1.85;100.00;100968.69;5077506;28;20031;-74
2022/12/10 05:20:32;;;;;;;295.98;33.80;;;;;;;-1.87;100.00;100966.16;5076973;28;20031;-73
2022/12/10 05:25:52;;;;;;;399.52;36.50;;;;;;;-1.93;100.00;100962.94;5094886;28;20137;-73
2022/12/10 05:28:18;;;;;;;258.35;30.90;;;;;;;-1.92;100.00;100957.66;5078447;28;20039;-74
2022/12/10 05:30:44;;;;;;;354.98;34.70;;;;;;;-1.93;100.00;100973.34;5095219;28;20024;-73
2022/12/10 05:33:09;;;;;;;270.23;32.03;;;;;;;-1.92;100.00;100969.84;5094572;28;20035;-73
2022/12/10 05:35:34;;;;;;;309.15;31.90;;;;;;;-1.90;100.00;100968.03;5076409;28;20032;-74
2022/12/10 05:38:00;;;;;;;297.52;33.55;;;;;;;-1.91;100.00;100966.31;5076559;28;20078;-73
2022/12/10 05:40:25;;;;;;;301.27;32.42;;;;;;;-1.92;100.00;100962.88;5076854;28;20024;-74
2022/12/10 05:42:51;;;;;;;121.50;26.45;;;;;;;-1.93;100.00;100963.75;5094691;28;20376;-73
2022/12/10 05:45:16;;;;;;;294.75;31.80;;;;;;;-1.93;100.00;100968.97;5076354;28;20032;-76
2022/12/10 05:47:41;;;;;;;200.07;28.27;;;;;;;-1.93;100.00;100963.75;5094924;28;20031;-74
2022/12/10 05:50:07;;;;;;;195.68;29.23;;;;;;;-1.93;100.00;100961.16;5094578;28;20554;-73
2022/12/10 05:52:32;;;;;;;221.88;29.33;;;;;;;-1.91;100.00;100961.09;5094586;28;20475;-75
2022/12/10 05:54:58;;;;;;;276.13;32.53;;;;;;;-1.89;100.00;100969.75;5076208;28;20046;-73
2022/12/10 05:57:23;;;;;;;212.30;29.52;;;;;;;-1.90;100.00;100968.03;5076369;28;20028;-74
2022/12/10 05:59:48;;;;;;;182.75;28.00;;;;;;;-1.92;100.00;100964.63;5094437;28;20020;-73
2022/12/10 06:02:13;;;;;;;194.20;29.00;;;;;;;-1.92;100.00;100965.47;5076185;28;20032;-74
2022/12/10 06:04:39;;;;;;;253.63;28.27;;;;;;;-1.92;100.00;100969.84;5075756;28;20027;-73
2022/12/10 06:07:04;;;;;;;191.70;28.40;;;;;;;-1.93;100.00;100970.75;5094552;28;20035;-73
2022/12/10 06:09:29;;;;;;;185.10;28.00;;;;;;;-1.96;100.00;100979.53;5076114;28;20024;-74
2022/12/10 06:11:55;;;;;;;263.65;28.95;;;;;;;-1.96;100.00;100976.91;5094422;28;20038;-74
2022/12/10 06:14:20;;;;;;;165.48;26.85;;;;;;;-1.98;100.00;100971.75;5075903;28;20024;-75
2022/12/10 06:16:46;;;;;;;285.65;30.98;;;;;;;-1.98;100.00;100976.97;5094138;28;20461;-73
2022/12/10 06:19:11;;;;;;;192.07;28.40;;;;;;;-1.97;100.00;100983.03;5076705;28;20069;-73
2022/12/10 06:21:37;;;;;;;183.35;29.30;;;;;;;-1.95;100.00;100982.06;5094290;28;20027;-74
2022/12/10 06:24:02;;;;;;;185.52;28.60;;;;;;;-1.91;100.00;100980.22;5093927;28;20020;-73
2022/12/10 06:26:28;;;;;;;284.20;30.65;;;;;;;-1.92;100.00;100982.88;5093932;28;20024;-73
2022/12/10 06:28:54;;;;;;;196.13;29.48;;;;;;;-1.91;100.00;100977.63;5094257;28;20023;-73
2022/12/10 06:31:20;;;;;;;272.05;32.42;;;;;;;-1.89;100.00;100986.22;5094110;28;20024;-73
2022/12/10 06:33:45;;;;;;;293.73;30.75;;;;;;;-1.88;100.00;100982.72;5093558;28;20035;-73
2022/12/10 06:36:13;;;;;;;271.85;30.98;;;;;;;-1.87;100.00;100984.41;5093793;28;20024;-73
2022/12/10 06:38:39;;;;;;;251.40;30.45;;;;;;;-1.88;100.00;100985.34;5093768;28;20448;-73
2022/12/10 06:41:08;;;;;;;163.32;27.42;;;;;;;-1.88;100.00;101000.97;5094099;28;20031;-73
2022/12/10 06:43:33;;;;;;;302.30;31.98;;;;;;;-1.89;100.00;100998.44;5093410;28;20124;-73
2022/12/10 06:46:03;;;;;;;331.70;33.30;;;;;;;-1.92;100.00;101003.75;5076257;28;20496;-74
2022/12/10 06:48:28;;;;;;;231.40;30.73;;;;;;;-1.97;100.00;100998.69;5074487;28;20077;-74
2022/12/10 06:50:55;;;;;;;279.80;30.10;;;;;;;-1.98;100.00;101005.66;5093180;28;20048;-73
2022/12/10 06:53:20;;;;;;;171.18;29.45;;;;;;;-1.97;100.00;101009.97;5094342;28;20070;-73
2022/12/10 06:55:46;;;;;;;184.07;27.80;;;;;;;-1.95;100.00;101012.53;5075485;28;20048;-74
2022/12/10 06:58:11;;;;;;;220.65;31.40;;;;;;;-1.92;100.00;101008.97;5075342;28;20457;-73
2022/12/10 07:00:36;;;;;;;232.88;30.30;;;;;;;-1.91;100.00;101018.47;5093614;28;20032;-73
2022/12/10 07:03:02;;;;;;;186.48;28.88;;;;;;;-1.91;100.00;101013.25;5093620;28;20031;-74
2022/12/10 07:05:27;;;;;;;173.65;28.90;;;;;;;-1.91;100.00;101016.75;5075915;28;20039;-74
2022/12/10 07:07:53;;;;;;;176.35;28.27;;;;;;;-1.87;100.00;101017.47;5093144;28;20106;-73
2022/12/10 07:10:18;;;;;;;153.52;29.20;;;;;;;-1.87;100.00;101020.06;5093507;28;20460;-73
2022/12/10 07:12:43;;;;;;;325.20;33.80;;;;;;;-1.87;100.00;101013.09;5075313;28;20036;-73
2022/12/10 07:15:09;;;;;;;252.55;29.83;;;;;;;-1.86;100.00;101014.81;5093371;28;20036;-73
2022/12/10 07:17:34;;;;;;;249.73;30.83;;;;;;;-1.82;100.00;101023.34;5093243;28;20039;-73
2022/12/10 07:20:00;;;;;;;312.90;35.40;;;;;;;-1.83;100.00;101016.47;5094091;28;20401;-73
2022/12/10 07:22:25;;;;;;;245.75;30.73;;;;;;;-1.82;100.00;101016.41;5075937;28;20042;-73
2022/12/10 07:24:50;;;;;;;166.13;27.77;;;;;;;-1.82;100.00;101016.41;5075068;28;20482;-73
2022/12/10 07:27:16;;;;;;;163.70;26.90;;;;;;;-1.79;100.00;101018.06;5093926;28;20035;-73
2022/12/10 07:29:41;;;;;;;278.50;32.08;;;;;;;-1.77;100.00;101027.50;5093623;28;20031;-73
2022/12/10 07:32:06;;;;;;;224.10;28.55;;;;;;;-1.79;100.00;101018.91;5075374;28;20024;-74
2022/12/10 07:34:32;;;;;;;269.63;30.85;;;;;;;-1.77;100.00;101022.28;5092796;28;20456;-74
2022/12/10 07:36:58;;;;;;;267.08;30.23;;;;;;;-1.79;100.00;101024.13;5093180;28;20063;-73
2022/12/10 07:39:23;;;;;;;189.35;27.73;;;;;;;-1.80;100.00;101032.84;5093343;28;20136;-73
2022/12/10 07:41:52;;;;;;;276.73;30.13;;;;;;;-1.84;100.00;101026.03;5092700;28;20474;-73
2022/12/10 07:44:23;;;;;;;249.15;29.70;;;;;;;-1.86;100.00;101021.78;5092792;28;20488;-73
2022/12/10 07:46:51;;;;;;;249.50;29.85;;;;;;;-1.83;100.00;101026.91;5093042;28;20027;-73
2022/12/10 07:49:17;;;;;;;189.20;28.27;;;;;;;-1.84;100.00;101030.41;5093046;28;20078;-73
2022/12/10 07:51:47;;;;;;;237.32;28.48;;;;;;;-1.86;100.00;101029.63;5093145;28;20388;-73
2022/12/10 07:54:13;;;;;;;183.50;28.42;;;;;;;-1.85;100.00;101033.91;5074819;28;20024;-73
2022/12/10 07:56:39;;;;;;;181.38;26.85;;;;;;;-1.86;100.00;101035.69;5074721;28;20085;-73
2022/12/10 07:59:04;;;;;;;296.63;30.35;;;;;;;-1.87;100.00;101039.19;5075941;28;20032;-73
2022/12/10 08:01:29;;;;;;;209.18;27.77;;;;;;;-1.87;100.00;101046.16;5096889;28;20032;-73
2022/12/10 08:03:56;;;;;;;237.02;28.67;;;;;;;-1.91;100.00;101053.25;5096024;28;20076;-72
2022/12/10 08:06:23;;;;;;;275.52;30.13;;;;;;;-1.92;100.00;101054.16;5096249;28;20429;-73
2022/12/10 08:08:49;;;;;;;276.73;29.55;;;;;;;-1.91;100.00;101055.88;5096730;28;20036;-72
2022/12/10 08:11:16;;;;;;;299.02;29.95;;;;;;;-1.95;100.00;101056.88;5095925;28;20032;-74
2022/12/10 08:13:42;;;;;;;219.23;28.73;;;;;;;-1.93;100.00;101054.22;5096170;28;20107;-74
2022/12/10 08:16:11;;;;;;;219.43;28.63;;;;;;;-1.90;100.00;101052.34;5095883;28;20489;-74
2022/12/10 08:18:37;;;;;;;236.25;29.23;;;;;;;-1.88;100.00;101057.50;5077928;28;20518;-77
2022/12/10 08:21:05;;;;;;;216.02;27.90;;;;;;;-1.89;100.00;101061.88;5096141;28;20054;-73
2022/12/10 08:23:30;;;;;;;161.57;26.67;;;;;;;-1.87;100.00;101074.84;5078275;28;20024;-74
2022/12/10 08:25:55;;;;;;;181.30;28.52;;;;;;;-1.84;100.00;101078.19;5096325;28;20026;-71
2022/12/10 08:28:21;;;;;;;195.15;29.85;;;;;;;-1.81;100.00;101080.72;5078936;28;20031;-71
2022/12/10 08:30:47;;;;;;;176.48;28.67;;;;;;;-1.77;100.00;101069.25;5096761;28;20040;-73
2022/12/10 08:33:12;;;;;;;290.58;34.13;;;;;;;-1.75;100.00;101068.34;5096241;28;20067;-73
2022/12/10 08:35:37;;;;;;;179.43;30.33;;;;;;;-1.72;100.00;101081.28;5096218;28;20059;-72
2022/12/10 08:38:03;;;;;;;130.25;27.38;;;;;;;-1.68;100.00;101068.06;5096318;28;20077;-71
2022/12/10 08:40:29;;;;;;;200.18;33.13;;;;;;;-1.64;100.00;101074.91;5096374;28;20024;-72
2022/12/10 08:42:54;;;;;;;218.43;35.05;;;;;;;-1.57;100.00;101069.47;5095973;28;20368;-72
2022/12/10 08:45:19;;;;;;;189.73;33.10;;;;;;;-1.52;100.00;101076.22;5096024;28;20035;-72
2022/12/10 08:47:45;;;;;;;181.60;31.83;;;;;;;-1.54;100.00;101085.00;5095876;28;20036;-72
2022/12/10 08:50:10;;;;;;;222.15;32.33;;;;;;;-1.50;100.00;101082.22;5077707;28;20024;-72
2022/12/10 08:52:35;;;;;;;200.65;32.35;;;;;;;-1.49;100.00;101090.94;5077656;28;20080;-71
2022/12/10 08:55:01;;;;;;;175.80;29.95;;;;;;;-1.54;100.00;101085.00;5095761;28;20114;-72
2022/12/10 08:57:26;;;;;;;178.43;31.98;;;;;;;-1.48;100.00;101095.22;5096074;28;20364;-72
2022/12/10 08:59:51;;;;;;;173.23;30.90;;;;;;;-1.49;100.00;101099.59;5095634;28;20115;-72
2022/12/10 09:02:17;;;;;;;164.90;31.27;;;;;;;-1.47;100.00;101096.94;5095623;28;20081;-72
2022/12/10 09:04:42;;;;;;;152.05;30.92;;;;;;;-1.46;100.00;101093.41;5077492;28;20028;-73
2022/12/10 09:07:08;;;;;;;155.27;29.77;;;;;;;-1.47;100.00;101091.72;5096009;28;20070;-71
2022/12/10 09:09:33;;;;;;;144.82;29.52;;;;;;;-1.49;100.00;101096.97;5095180;28;20074;-71
2022/12/10 09:11:59;;;;;;;140.50;29.40;;;;;;;-1.47;100.00;101095.16;5094875;28;20028;-72
2022/12/10 09:14:24;;;;;;;128.10;29.05;;;;;;;-1.41;100.00;101096.69;5077418;28;20119;-71
2022/12/10 09:16:49;;;;;;;160.38;31.30;;;;;;;-1.38;100.00;101098.34;5077207;28;20035;-72
2022/12/10 09:19:15;;;;;;;151.57;31.83;;;;;;;-1.38;100.00;101096.59;5095351;28;20357;-72
2022/12/10 09:21:40;;;;;;;154.05;33.58;;;;;;;-1.36;100.00;101099.97;5095069;28;20070;-73
2022/12/10 09:24:06;;;;;;;162.10;34.10;;;;;;;-1.33;100.00;101099.03;5077158;28;20036;-72
2022/12/10 09:26:31;;;;;;;150.57;32.55;;;;;;;-1.32;100.00;101101.56;5095192;28;20020;-71
2022/12/10 09:28:57;;;;;;;169.13;30.90;;;;;;;-1.30;100.00;101106.75;5077156;28;20028;-72
2022/12/10 09:31:24;;;;;;;141.15;32.08;;;;;;;-1.31;100.00;101118.13;5095038;28;20106;-71
2022/12/10 09:33:51;;;;;;;140.75;31.45;;;;;;;-1.29;100.00;101118.91;5076955;28;20028;-72
2022/12/10 09:36:17;;;;;;;144.50;31.90;;;;;;;-1.26;100.00;101119.63;5076898;28;20020;-70
2022/12/10 09:38:44;;;;;;;183.32;31.17;;;;;;;-1.24;100.00;101122.19;5094808;28;20085;-70
2022/12/10 09:41:43;;;;;;;137.02;31.17;;;;;;;-1.21;100.00;101119.44;5094626;28;20035;-71
2022/12/10 09:44:46;;;;;;;137.90;32.05;;;;;;;-1.19;100.00;101117.66;5094514;28;20066;-72
2022/12/10 09:47:12;;;;;;;162.48;32.00;;;;;;;-1.19;100.00;101115.03;5094373;28;20028;-72
2022/12/10 09:49:40;;;;;;;128.27;30.67;;;;;;;-1.18;100.00;101114.16;5094668;28;20024;-72
2022/12/10 09:52:12;;;;;;;134.27;32.30;;;;;;;-1.14;100.00;101110.50;5094759;28;20052;-72
2022/12/10 09:55:29;;;;;;;153.57;32.88;;;;;;;-1.05;100.00;101111.06;5095027;28;20467;-72
2022/12/10 09:57:55;;;;;;;151.85;34.00;;;;;;;-1.01;100.00;101123.94;5079530;28;20040;-74
2022/12/10 10:00:35;;;;;;;144.10;35.83;;;;;;;-0.97;100.00;101119.44;5095078;28;20092;-73
2022/12/10 10:03:01;;;;;;;126.40;32.03;;;;;;;-0.96;100.00;101122.00;5094022;28;20063;-73
2022/12/10 10:05:33;;;;;;;169.55;32.53;;;;;;;-0.95;100.00;101121.09;5076441;28;20448;-72
2022/12/10 10:08:03;;;;;;;161.68;32.38;;;;;;;-0.93;100.00;101119.28;5094382;28;20122;-73
2022/12/10 10:10:38;;;;;;;177.50;32.83;;;;;;;-0.89;100.00;101130.47;5075807;28;20069;-73
2022/12/10 10:13:42;;;;;;;139.30;30.70;;;;;;;-0.84;100.00;101120.69;5076046;28;20106;-73
2022/12/10 10:16:29;;;;;;;115.65;29.42;;;;;;;-0.89;100.00;101117.41;5093682;28;20111;-74
2022/12/10 10:19:14;;;;;;;120.55;27.63;;;;;;;-0.93;100.00;101123.66;5094641;28;20110;-74
2022/12/10 10:21:42;;;;;;;133.23;26.80;;;;;;;-0.98;100.00;101126.44;5094161;28;20028;-73
2022/12/10 10:24:16;;;;;;;124.03;28.23;;;;;;;-1.03;100.00;101123.16;5094130;28;20368;-72
2022/12/10 10:26:42;;;;;;;126.00;27.42;;;;;;;-1.11;100.00;101126.03;5094125;28;20031;-73
2022/12/10 10:29:11;;;;;;;116.32;28.80;;;;;;;-0.96;100.00;101136.84;5093856;28;20035;-72
2022/12/10 10:31:39;;;;;;;140.48;29.95;;;;;;;-0.94;100.00;101129.78;5094099;28;20073;-73
2022/12/10 10:34:13;;;;;;;133.18;30.05;;;;;;;-0.89;100.00;101139.16;5093938;28;20024;-72
2022/12/10 10:36:39;;;;;;;135.02;29.92;;;;;;;-0.92;100.00;101130.59;5076199;28;20027;-72
2022/12/10 10:39:26;;;;;;;127.88;28.80;;;;;;;-0.94;100.00;101137.63;5093874;28;20024;-72
2022/12/10 10:41:54;;;;;;;114.47;27.58;;;;;;;-0.98;100.00;101142.13;5093757;28;20020;-72
2022/12/10 10:44:23;;;;;;;116.05;27.33;;;;;;;-0.94;100.00;101142.84;5093791;28;20483;-72
2022/12/10 10:46:51;;;;;;;125.97;27.27;;;;;;;-1.01;100.00;101137.00;5076270;28;20024;-72
2022/12/10 10:49:31;;;;;;;110.18;27.40;;;;;;;-0.92;100.00;101141.88;5059167;28;20051;-72
2022/12/10 10:52:14;;;;;;;102.30;26.67;;;;;;;-0.90;100.00;101149.66;5093836;28;20468;-71
2022/12/10 10:54:42;;;;;;;105.82;27.58;;;;;;;-0.97;100.00;101145.56;5093824;28;20028;-73
2022/12/10 10:57:36;;;;;;;109.28;27.52;;;;;;;-0.99;100.00;101145.63;5092903;28;20020;-72
2022/12/10 11:00:17;;;;;;;138.38;41.70;;;;;;;-0.96;100.00;101142.06;5083023;28;20028;-72
2022/12/10 11:02:42;;;;;;;100.63;27.77;;;;;;;-0.98;100.00;101144.72;5093765;28;20114;-71
2022/12/10 11:05:17;;;;;;;121.85;30.63;;;;;;;-0.98;100.00;101142.13;5093482;28;20525;-71
2022/12/10 11:07:43;;;;;;;113.13;28.05;;;;;;;-0.96;100.00;101140.28;5093525;28;20036;-71
2022/12/10 11:10:21;;;;;;;120.85;29.45;;;;;;;-0.88;100.00;101134.81;5093251;28;20073;-71
2022/12/10 11:13:18;;;;;;;116.88;29.02;;;;;;;-0.78;100.00;101135.28;5093792;28;20024;-71